RODN(METAR)
08/23 03:56
METAR RODN 221856Z AUTO 12012KT 10SM FEW018 28/25 A2980 RMK AO2
SLP096 T02830249=
戻る
トップページへ戻る
IMOC Co,.Ltd.